Maersk Adriatic — 9V3388 — position and weather

sailwx.info

Track history (hours):
 
Tides and Currents Weather Stations Pressure Air Temp Water Temp Dewpoint Dewpoint Depression Visibility Wind Speed Wind Dir Waves Ship Positions

Maersk Adriatic

Last reported at 2018-Jan-12 14:56 UTC. Time now 2018-Jan-19 00:11 UTC.
Position N 46°55' W 002°53'.

Length 184 m; draft 7.5 m.

Type: Ship. MMSI: 566429000.

Date/timePositionNaut miles runAvg speedWind from/ knotsBaromVisibWave heightAir tempDewpointWater temp
2018-Jan-12 14:56N 46°55' W 002°53'5 8.5
2018-Jan-12 14:20N 46°54' W 003°00'4 8.6
2018-Jan-12 13:55N 46°54' W 003°06'5 1.9
2018-Jan-12 11:08N 46°54' W 003°14'10 7.0
2018-Jan-12 09:46N 46°54' W 002°60'2 6.8
2018-Jan-12 09:30N 46°54' W 002°57'4 7.0
2018-Jan-12 08:53N 46°54' W 002°51'3 6.7
2018-Jan-12 08:23N 46°55' W 002°46'2 4.2
2018-Jan-12 07:52N 46°56' W 002°43'1 3.8
2018-Jan-12 07:30N 46°55' W 002°44'7 8.1
2018-Jan-12 06:41N 46°51' W 002°52'11 8.1
2018-Jan-12 05:23N 46°51' W 003°07'3 7.7
2018-Jan-12 05:00N 46°51' W 003°11'10 8.0
2018-Jan-12 03:44N 46°51' W 003°26'4 8.2
2018-Jan-12 03:15N 46°51' W 003°32'34 0.7
2018-Jan-10 02:15N 46°56' W 002°43'0 0.2
2018-Jan-10 01:59N 46°56' W 002°43'19 0.5
2018-Jan-08 11:09N 47°02' W 003°09'1 8.5
2018-Jan-08 10:59N 47°03' W 003°11'4 8.2
2018-Jan-08 10:30N 47°04' W 003°17'8 9.9
2018-Jan-08 09:41N 47°08' W 003°27'212.7
2018-Jan-08 09:30N 47°09' W 003°30'712.7
2018-Jan-08 08:59N 47°12' W 003°39'612.7
2018-Jan-08 08:31N 47°15' W 003°47'55 8.5
2018-Jan-08 02:02N 47°41' W 004°59'0 7.1
2018-Jan-08 02:00N 47°41' W 004°59'25 8.3
2018-Jan-07 22:58N 47°58' W 005°27'1510.9
2018-Jan-07 21:34N 48°12' W 005°35'128 6.0
2018-Jan-07 00:08N 49°49' W 003°26'7 9.3
2018-Jan-06 23:21N 49°52' W 003°17'3 8.8
2018-Jan-06 22:59N 49°54' W 003°12'4 8.6
2018-Jan-06 22:30N 49°56' W 003°07'4 8.4
2018-Jan-06 22:00N 49°58' W 003°01'4 8.3
2018-Jan-06 21:30N 49°60' W 002°55'4 8.6
2018-Jan-06 20:59N 50°01' W 002°48'4 9.0
2018-Jan-06 20:30N 50°02' W 002°42'5 9.6
2018-Jan-06 19:58N 50°03' W 002°34'8711.1
2018-Jan-06 12:05N 50°26' W 000°22'1 6.7
2018-Jan-06 11:59N 50°26' W 000°21'3 7.0
2018-Jan-06 11:30N 50°27' W 000°16'4 7.2
2018-Jan-06 11:00N 50°28' W 000°11'510.2
2018-Jan-06 10:30N 50°29' W 000°03'612.3
2018-Jan-06 10:00N 50°31' E 000°07'613.1
2018-Jan-06 09:30N 50°32' E 000°16'713.9
2018-Jan-06 09:00N 50°34' E 000°27'714.6
2018-Jan-06 08:31N 50°37' E 000°38'715.0
2018-Jan-06 08:01N 50°41' E 000°48'815.1
2018-Jan-06 07:31N 50°45' E 000°58'1810.1
2018-Jan-06 05:46N 50°56' E 001°19'2 8.0
2018-Jan-06 05:30N 50°57' E 001°22'4 7.5
2018-Jan-06 05:00N 51°00' E 001°26'3 6.7
2018-Jan-06 04:31N 51°03' E 001°29'3 5.8
2018-Jan-06 04:00N 51°05' E 001°33'3 5.5
2018-Jan-06 03:30N 51°07' E 001°36'3 5.4
2018-Jan-06 03:01N 51°08' E 001°39'3 5.7
2018-Jan-06 02:30N 51°11' E 001°42'3 6.4
2018-Jan-06 02:00N 51°13' E 001°45'4 7.5
2018-Jan-06 01:30N 51°16' E 001°48'4 8.7
2018-Jan-06 01:00N 51°20' E 001°51'5 9.7
2018-Jan-06 00:30N 51°24' E 001°55'510.6
2018-Jan-06 00:00N 51°29' E 001°60'510.9
2018-Jan-05 23:30N 51°33' E 002°06'510.8
2018-Jan-05 23:00N 51°37' E 002°11'38 3.3
2018-Jan-05 11:28N 52°07' E 002°47'0 0.0
2018-Jan-05 10:52N 52°07' E 002°47'0 0.2
2018-Jan-05 10:30N 52°07' E 002°47'611.8
2018-Jan-05 10:00N 52°13' E 002°47'35 0.9
2018-Jan-03 20:38N 52°04' E 003°42'1 5.2
2018-Jan-03 20:30N 52°04' E 003°43'3 4.8
2018-Jan-03 19:58N 52°03' E 003°47'2 5.1
2018-Jan-03 19:30N 52°03' E 003°51'3 5.2
2018-Jan-03 19:00N 52°03' E 003°55'3 5.4
2018-Jan-03 18:30N 52°01' E 003°59'611.0
2018-Jan-03 18:00N 51°58' E 004°07'4 7.9
2018-Jan-03 17:30N 51°56' E 004°12'0 0.9
2018-Jan-03 16:59N 51°55' E 004°12'0 0.0
2018-Jan-03 16:26N 51°55' E 004°12'0 0.0
2018-Jan-03 15:59N 51°55' E 004°12'0 0.0
2018-Jan-03 15:29N 51°55' E 004°12'0 0.0
2018-Jan-03 14:56N 51°55' E 004°12'0 0.0
2018-Jan-03 14:29N 51°55' E 004°12'0 0.0
2018-Jan-03 13:59N 51°55' E 004°12'0 0.0
2018-Jan-03 13:20N 51°55' E 004°12'0 0.0
2018-Jan-03 12:53N 51°55' E 004°12'0 0.0
2018-Jan-03 12:26N 51°55' E 004°12'0 0.0
2018-Jan-03 11:50N 51°55' E 004°12'0 0.0
2018-Jan-03 11:26N 51°55' E 004°12'0 0.0
2018-Jan-03 10:59N 51°55' E 004°12'0 0.0
2018-Jan-03 10:26N 51°55' E 004°12'0 0.0
2018-Jan-03 09:53N 51°55' E 004°12'0 0.0
2018-Jan-03 09:29N 51°55' E 004°12'0 0.0
2018-Jan-03 08:56N 51°55' E 004°12'0 0.0
2018-Jan-03 08:20N 51°55' E 004°12'0 0.0
2018-Jan-03 07:59N 51°55' E 004°12'0 0.0
2018-Jan-03 07:11N 51°55' E 004°12'0 0.0
2018-Jan-03 06:59N 51°55' E 004°12'0 0.0
2018-Jan-03 06:26N 51°55' E 004°12'0 0.0
2018-Jan-03 05:59N 51°55' E 004°12'0 0.0
2018-Jan-03 05:29N 51°55' E 004°12'0 0.0
2018-Jan-03 04:59N 51°55' E 004°12'0 0.0
2018-Jan-03 04:26N 51°55' E 004°12'0 0.0
2018-Jan-03 03:59N 51°55' E 004°12'0 0.0
2018-Jan-03 03:17N 51°55' E 004°12'0 0.0
2018-Jan-03 02:53N 51°55' E 004°12'0 0.0
2018-Jan-03 02:29N 51°55' E 004°12'0 0.0
2018-Jan-03 01:59N 51°55' E 004°12'0 0.0
2018-Jan-03 00:47N 51°55' E 004°12'0 0.0
2018-Jan-03 00:23N 51°55' E 004°12'0 0.0
2018-Jan-02 23:59N 51°55' E 004°12'0 0.0
2018-Jan-02 23:14N 51°55' E 004°12'0 0.0
2018-Jan-02 22:59N 51°55' E 004°12'0 0.0
2018-Jan-02 22:14N 51°55' E 004°12'0 0.0
2018-Jan-02 21:53N 51°55' E 004°12'0 0.0
2018-Jan-02 21:26N 51°55' E 004°12'0 0.0
2018-Jan-02 20:47N 51°55' E 004°12'0 0.0
2018-Jan-02 20:23N 51°55' E 004°12'0 0.0
2018-Jan-02 19:50N 51°55' E 004°12'0 0.0
2018-Jan-02 19:29N 51°55' E 004°12'0 0.0
2018-Jan-02 18:53N 51°55' E 004°12'0 0.0
2018-Jan-02 17:38N 51°55' E 004°12'0 0.0
2018-Jan-02 17:20N 51°55' E 004°12'0 0.0
2018-Jan-02 16:59N 51°55' E 004°12'0 0.0
2018-Jan-02 16:11N 51°55' E 004°12'0 0.0
2018-Jan-02 15:35N 51°55' E 004°12'0 0.0
2018-Jan-02 15:26N 51°55' E 004°12'0 0.0
2018-Jan-02 14:59N 51°55' E 004°12'  
Track history (hours):
 
Tides and Currents Weather Stations Pressure Air Temp Water Temp Dewpoint Dewpoint Depression Visibility Wind Speed Wind Dir Waves Ship Positions

Maersk Adriatic

Last reported at 2018-Jan-12 14:56 UTC. Time now 2018-Jan-19 00:11 UTC.
Position N 46°55' W 002°53'.

Length 184 m; draft 7.5 m.

Type: Ship. MMSI: 566429000.

Date/timePositionNaut miles runAvg speedWind from/ knotsBaromVisibWave heightAir tempDewpointWater temp
2018-Jan-12 14:56N 46°55' W 002°53'5 8.5
2018-Jan-12 14:20N 46°54' W 003°00'4 8.6
2018-Jan-12 13:55N 46°54' W 003°06'5 1.9
2018-Jan-12 11:08N 46°54' W 003°14'10 7.0
2018-Jan-12 09:46N 46°54' W 002°60'2 6.8
2018-Jan-12 09:30N 46°54' W 002°57'4 7.0
2018-Jan-12 08:53N 46°54' W 002°51'3 6.7
2018-Jan-12 08:23N 46°55' W 002°46'2 4.2
2018-Jan-12 07:52N 46°56' W 002°43'1 3.8
2018-Jan-12 07:30N 46°55' W 002°44'7 8.1
2018-Jan-12 06:41N 46°51' W 002°52'11 8.1
2018-Jan-12 05:23N 46°51' W 003°07'3 7.7
2018-Jan-12 05:00N 46°51' W 003°11'10 8.0
2018-Jan-12 03:44N 46°51' W 003°26'4 8.2
2018-Jan-12 03:15N 46°51' W 003°32'34 0.7
2018-Jan-10 02:15N 46°56' W 002°43'0 0.2
2018-Jan-10 01:59N 46°56' W 002°43'19 0.5
2018-Jan-08 11:09N 47°02' W 003°09'1 8.5
2018-Jan-08 10:59N 47°03' W 003°11'4 8.2
2018-Jan-08 10:30N 47°04' W 003°17'8 9.9
2018-Jan-08 09:41N 47°08' W 003°27'212.7
2018-Jan-08 09:30N 47°09' W 003°30'712.7
2018-Jan-08 08:59N 47°12' W 003°39'612.7
2018-Jan-08 08:31N 47°15' W 003°47'55 8.5
2018-Jan-08 02:02N 47°41' W 004°59'0 7.1
2018-Jan-08 02:00N 47°41' W 004°59'25 8.3
2018-Jan-07 22:58N 47°58' W 005°27'1510.9
2018-Jan-07 21:34N 48°12' W 005°35'128 6.0
2018-Jan-07 00:08N 49°49' W 003°26'7 9.3
2018-Jan-06 23:21N 49°52' W 003°17'3 8.8
2018-Jan-06 22:59N 49°54' W 003°12'4 8.6
2018-Jan-06 22:30N 49°56' W 003°07'4 8.4
2018-Jan-06 22:00N 49°58' W 003°01'4 8.3
2018-Jan-06 21:30N 49°60' W 002°55'4 8.6
2018-Jan-06 20:59N 50°01' W 002°48'4 9.0
2018-Jan-06 20:30N 50°02' W 002°42'5 9.6
2018-Jan-06 19:58N 50°03' W 002°34'8711.1
2018-Jan-06 12:05N 50°26' W 000°22'1 6.7
2018-Jan-06 11:59N 50°26' W 000°21'3 7.0
2018-Jan-06 11:30N 50°27' W 000°16'4 7.2
2018-Jan-06 11:00N 50°28' W 000°11'510.2
2018-Jan-06 10:30N 50°29' W 000°03'612.3
2018-Jan-06 10:00N 50°31' E 000°07'613.1
2018-Jan-06 09:30N 50°32' E 000°16'713.9
2018-Jan-06 09:00N 50°34' E 000°27'714.6
2018-Jan-06 08:31N 50°37' E 000°38'715.0
2018-Jan-06 08:01N 50°41' E 000°48'815.1
2018-Jan-06 07:31N 50°45' E 000°58'1810.1
2018-Jan-06 05:46N 50°56' E 001°19'2 8.0
2018-Jan-06 05:30N 50°57' E 001°22'4 7.5
2018-Jan-06 05:00N 51°00' E 001°26'3 6.7
2018-Jan-06 04:31N 51°03' E 001°29'3 5.8
2018-Jan-06 04:00N 51°05' E 001°33'3 5.5
2018-Jan-06 03:30N 51°07' E 001°36'3 5.4
2018-Jan-06 03:01N 51°08' E 001°39'3 5.7
2018-Jan-06 02:30N 51°11' E 001°42'3 6.4
2018-Jan-06 02:00N 51°13' E 001°45'4 7.5
2018-Jan-06 01:30N 51°16' E 001°48'4 8.7
2018-Jan-06 01:00N 51°20' E 001°51'5 9.7
2018-Jan-06 00:30N 51°24' E 001°55'510.6
2018-Jan-06 00:00N 51°29' E 001°60'510.9
2018-Jan-05 23:30N 51°33' E 002°06'510.8
2018-Jan-05 23:00N 51°37' E 002°11'38 3.3
2018-Jan-05 11:28N 52°07' E 002°47'0 0.0
2018-Jan-05 10:52N 52°07' E 002°47'0 0.2
2018-Jan-05 10:30N 52°07' E 002°47'611.8
2018-Jan-05 10:00N 52°13' E 002°47'35 0.9
2018-Jan-03 20:38N 52°04' E 003°42'1 5.2
2018-Jan-03 20:30N 52°04' E 003°43'3 4.8
2018-Jan-03 19:58N 52°03' E 003°47'2 5.1
2018-Jan-03 19:30N 52°03' E 003°51'3 5.2
2018-Jan-03 19:00N 52°03' E 003°55'3 5.4
2018-Jan-03 18:30N 52°01' E 003°59'611.0
2018-Jan-03 18:00N 51°58' E 004°07'4 7.9
2018-Jan-03 17:30N 51°56' E 004°12'0 0.9
2018-Jan-03 16:59N 51°55' E 004°12'0 0.0
2018-Jan-03 16:26N 51°55' E 004°12'0 0.0
2018-Jan-03 15:59N 51°55' E 004°12'0 0.0
2018-Jan-03 15:29N 51°55' E 004°12'0 0.0
2018-Jan-03 14:56N 51°55' E 004°12'0 0.0
2018-Jan-03 14:29N 51°55' E 004°12'0 0.0
2018-Jan-03 13:59N 51°55' E 004°12'0 0.0
2018-Jan-03 13:20N 51°55' E 004°12'0 0.0
2018-Jan-03 12:53N 51°55' E 004°12'0 0.0
2018-Jan-03 12:26N 51°55' E 004°12'0 0.0
2018-Jan-03 11:50N 51°55' E 004°12'0 0.0
2018-Jan-03 11:26N 51°55' E 004°12'0 0.0
2018-Jan-03 10:59N 51°55' E 004°12'0 0.0
2018-Jan-03 10:26N 51°55' E 004°12'0 0.0
2018-Jan-03 09:53N 51°55' E 004°12'0 0.0
2018-Jan-03 09:29N 51°55' E 004°12'0 0.0
2018-Jan-03 08:56N 51°55' E 004°12'0 0.0
2018-Jan-03 08:20N 51°55' E 004°12'0 0.0
2018-Jan-03 07:59N 51°55' E 004°12'0 0.0
2018-Jan-03 07:11N 51°55' E 004°12'0 0.0
2018-Jan-03 06:59N 51°55' E 004°12'0 0.0
2018-Jan-03 06:26N 51°55' E 004°12'0 0.0
2018-Jan-03 05:59N 51°55' E 004°12'0 0.0
2018-Jan-03 05:29N 51°55' E 004°12'0 0.0
2018-Jan-03 04:59N 51°55' E 004°12'0 0.0
2018-Jan-03 04:26N 51°55' E 004°12'0 0.0
2018-Jan-03 03:59N 51°55' E 004°12'0 0.0
2018-Jan-03 03:17N 51°55' E 004°12'0 0.0
2018-Jan-03 02:53N 51°55' E 004°12'0 0.0
2018-Jan-03 02:29N 51°55' E 004°12'0 0.0
2018-Jan-03 01:59N 51°55' E 004°12'0 0.0
2018-Jan-03 00:47N 51°55' E 004°12'0 0.0
2018-Jan-03 00:23N 51°55' E 004°12'0 0.0
2018-Jan-02 23:59N 51°55' E 004°12'0 0.0
2018-Jan-02 23:14N 51°55' E 004°12'0 0.0
2018-Jan-02 22:59N 51°55' E 004°12'0 0.0
2018-Jan-02 22:14N 51°55' E 004°12'0 0.0
2018-Jan-02 21:53N 51°55' E 004°12'0 0.0
2018-Jan-02 21:26N 51°55' E 004°12'0 0.0
2018-Jan-02 20:47N 51°55' E 004°12'0 0.0
2018-Jan-02 20:23N 51°55' E 004°12'0 0.0
2018-Jan-02 19:50N 51°55' E 004°12'0 0.0
2018-Jan-02 19:29N 51°55' E 004°12'0 0.0
2018-Jan-02 18:53N 51°55' E 004°12'0 0.0
2018-Jan-02 17:38N 51°55' E 004°12'0 0.0
2018-Jan-02 17:20N 51°55' E 004°12'0 0.0
2018-Jan-02 16:59N 51°55' E 004°12'0 0.0
2018-Jan-02 16:11N 51°55' E 004°12'0 0.0
2018-Jan-02 15:35N 51°55' E 004°12'0 0.0
2018-Jan-02 15:26N 51°55' E 004°12'0 0.0
2018-Jan-02 14:59N 51°55' E 004°12'  

Dump ship's entire track history